PWSweather.com
Personal Weather Stations
Station Observations
KCAEMERA1
Emerald Hills, Redwood City, CA 94062

Emerald HillsRedwood City, CA 94062

Lat: 37.46, Lon: -122.27

Elevation: 800

Station Type:

http://www.anegada.com/weather/wx.htm

High Low Average
Temperature 69.2°F20.7°C 56.7°F13.7°C 62.0°F16.7°C
Dew Point 53.1°F11.7°C 41.1°F5.1°C 46.3°F7.9°C
Winds 7.0 mph 11.3 kmh Calm Calm 2.0 mph S3.2 kmh S
Wind Gusts 13.0 mph20.9 kmh -- 5.0 mph8.0 kmh
Humidity 66% 48% 57%
Pressure 30.05 in1017.6 mb 29.83 in1010.2 mb -
Precipitation 0.00 in0.0 mm - -
Hour Temp Dew Point Humidity Winds Wind Gusts Pressure Precip Precip Rate Daily Precip Total
12:03 AM 58.5°F14.7°C 46.4°F8.0°C 64% 4.0 mph SSE6.4 kmh SSE 9.0 mph14.5 kmh 30.06 in1017.9 mb 0.00 in0.0 mm 0.00 in/hr0.0 mm/hr 0.00 in0.0 mm
12:11 AM 58.4°F14.7°C 46.7°F8.2°C 65% 10.0 mph SE16.1 kmh SE 12.0 mph19.3 kmh 30.05 in1017.6 mb 0.00 in0.0 mm 0.00 in/hr0.0 mm/hr 0.00 in0.0 mm
12:21 AM 58.2°F14.6°C 46.1°F7.8°C 64% 10.0 mph SE16.1 kmh SE 14.0 mph22.5 kmh 30.05 in1017.6 mb 0.00 in0.0 mm 0.00 in/hr0.0 mm/hr 0.00 in0.0 mm
12:33 AM 58.0°F14.4°C 45.1°F7.3°C 62% 4.0 mph SSE6.4 kmh SSE 14.0 mph22.5 kmh 30.04 in1017.3 mb 0.00 in0.0 mm 0.00 in/hr0.0 mm/hr 0.00 in0.0 mm
12:41 AM 58.0°F14.4°C 46.7°F8.2°C 66% 5.0 mph SSE8.0 kmh SSE 7.0 mph11.3 kmh 30.05 in1017.6 mb 0.00 in0.0 mm 0.00 in/hr0.0 mm/hr 0.00 in0.0 mm
12:51 AM 57.9°F14.4°C 45.4°F7.4°C 63% 1.0 mph SSE1.6 kmh SSE 10.0 mph16.1 kmh 30.05 in1017.6 mb 0.00 in0.0 mm 0.00 in/hr0.0 mm/hr 0.00 in0.0 mm
01:03 AM 57.9°F14.4°C 45.4°F7.4°C 63% 1.0 mph SSE1.6 kmh SSE 6.0 mph9.7 kmh 30.04 in1017.3 mb 0.00 in0.0 mm 0.00 in/hr0.0 mm/hr 0.00 in0.0 mm
01:11 AM 57.9°F14.4°C 45.4°F7.4°C 63% 3.0 mph S4.8 kmh S 6.0 mph9.7 kmh 30.04 in1017.3 mb 0.00 in0.0 mm 0.00 in/hr0.0 mm/hr 0.00 in0.0 mm
01:21 AM 58.1°F14.5°C 45.6°F7.6°C 63% 2.0 mph S3.2 kmh S 2.0 mph3.2 kmh 30.05 in1017.6 mb 0.00 in0.0 mm 0.00 in/hr0.0 mm/hr 0.00 in0.0 mm
01:33 AM 58.1°F14.5°C 45.6°F7.6°C 63% Calm Calm 3.0 mph4.8 kmh 30.05 in1017.6 mb 0.00 in0.0 mm 0.00 in/hr0.0 mm/hr 0.00 in0.0 mm
01:41 AM 58.1°F14.5°C 46.0°F7.8°C 64% 1.0 mph S1.6 kmh S 2.0 mph3.2 kmh 30.05 in1017.6 mb 0.00 in0.0 mm 0.00 in/hr0.0 mm/hr 0.00 in0.0 mm
01:51 AM 58.1°F14.5°C 45.6°F7.6°C 63% 1.0 mph S1.6 kmh S 5.0 mph8.0 kmh 30.05 in1017.6 mb 0.00 in0.0 mm 0.00 in/hr0.0 mm/hr 0.00 in0.0 mm
02:03 AM 58.0°F14.4°C 45.9°F7.7°C 64% Calm Calm 1.0 mph1.6 kmh 30.04 in1017.3 mb 0.00 in0.0 mm 0.00 in/hr0.0 mm/hr 0.00 in0.0 mm
02:11 AM 57.9°F14.4°C 45.8°F7.7°C 64% 2.0 mph S3.2 kmh S 4.0 mph6.4 kmh 30.04 in1017.3 mb 0.00 in0.0 mm 0.00 in/hr0.0 mm/hr 0.00 in0.0 mm
02:21 AM 57.8°F14.3°C 45.7°F7.6°C 64% 1.0 mph S1.6 kmh S 3.0 mph4.8 kmh 30.03 in1016.9 mb 0.00 in0.0 mm 0.00 in/hr0.0 mm/hr 0.00 in0.0 mm
02:33 AM 57.9°F14.4°C 45.8°F7.7°C 64% 1.0 mph S1.6 kmh S 5.0 mph8.0 kmh 30.03 in1016.9 mb 0.00 in0.0 mm 0.00 in/hr0.0 mm/hr 0.00 in0.0 mm
02:41 AM 57.9°F14.4°C 45.8°F7.7°C 64% 1.0 mph S1.6 kmh S 1.0 mph1.6 kmh 30.03 in1016.9 mb 0.00 in0.0 mm 0.00 in/hr0.0 mm/hr 0.00 in0.0 mm
02:51 AM 57.9°F14.4°C 45.8°F7.7°C 64% Calm Calm 1.0 mph1.6 kmh 30.02 in1016.6 mb 0.00 in0.0 mm 0.00 in/hr0.0 mm/hr 0.00 in0.0 mm
03:03 AM 57.9°F14.4°C 46.2°F7.9°C 65% Calm Calm 2.0 mph3.2 kmh 30.02 in1016.6 mb 0.00 in0.0 mm 0.00 in/hr0.0 mm/hr 0.00 in0.0 mm
03:11 AM 57.9°F14.4°C 46.2°F7.9°C 65% Calm Calm 2.0 mph3.2 kmh 30.01 in1016.3 mb 0.00 in0.0 mm 0.00 in/hr0.0 mm/hr 0.00 in0.0 mm
03:21 AM 57.8°F14.3°C 46.1°F7.8°C 65% 1.0 mph S1.6 kmh S 2.0 mph3.2 kmh 30.01 in1016.3 mb 0.00 in0.0 mm 0.00 in/hr0.0 mm/hr 0.00 in0.0 mm
03:34 AM 57.6°F14.2°C 45.9°F7.7°C 65% Calm Calm 2.0 mph3.2 kmh 30.01 in1016.3 mb 0.00 in0.0 mm 0.00 in/hr0.0 mm/hr 0.00 in0.0 mm
03:41 AM 57.6°F14.2°C 46.3°F7.9°C 66% Calm Calm 3.0 mph4.8 kmh 30.01 in1016.3 mb 0.00 in0.0 mm 0.00 in/hr0.0 mm/hr 0.00 in0.0 mm
03:51 AM 57.5°F14.2°C 46.2°F7.9°C 66% Calm Calm 3.0 mph4.8 kmh 30.01 in1016.3 mb 0.00 in0.0 mm 0.00 in/hr0.0 mm/hr 0.00 in0.0 mm
04:03 AM 57.1°F13.9°C 45.1°F7.3°C 64% 3.0 mph SSE4.8 kmh SSE 5.0 mph8.0 kmh 30.01 in1016.3 mb 0.00 in0.0 mm 0.00 in/hr0.0 mm/hr 0.00 in0.0 mm
04:11 AM 56.9°F13.8°C 44.0°F6.7°C 62% Calm Calm 5.0 mph8.0 kmh 30.00 in1015.9 mb 0.00 in0.0 mm 0.00 in/hr0.0 mm/hr 0.00 in0.0 mm
04:21 AM 56.8°F13.8°C 42.6°F5.9°C 59% 1.0 mph SSE1.6 kmh SSE 1.0 mph1.6 kmh 30.01 in1016.3 mb 0.00 in0.0 mm 0.00 in/hr0.0 mm/hr 0.00 in0.0 mm
04:33 AM 56.7°F13.7°C 42.1°F5.6°C 58% 1.0 mph SSE1.6 kmh SSE 3.0 mph4.8 kmh 30.00 in1015.9 mb 0.00 in0.0 mm 0.00 in/hr0.0 mm/hr 0.00 in0.0 mm
04:41 AM 56.8°F13.8°C 42.2°F5.7°C 58% Calm Calm 1.0 mph1.6 kmh 30.01 in1016.3 mb 0.00 in0.0 mm 0.00 in/hr0.0 mm/hr 0.00 in0.0 mm
04:51 AM 56.9°F13.8°C 41.4°F5.2°C 56% 1.0 mph SSE1.6 kmh SSE 3.0 mph4.8 kmh 30.01 in1016.3 mb 0.00 in0.0 mm 0.00 in/hr0.0 mm/hr 0.00 in0.0 mm
05:03 AM 56.9°F13.8°C 41.4°F5.2°C 56% 1.0 mph SSE1.6 kmh SSE 2.0 mph3.2 kmh 30.00 in1015.9 mb 0.00 in0.0 mm 0.00 in/hr0.0 mm/hr 0.00 in0.0 mm
05:11 AM 57.0°F13.9°C 41.5°F5.3°C 56% 1.0 mph SSE1.6 kmh SSE 3.0 mph4.8 kmh 30.01 in1016.3 mb 0.00 in0.0 mm 0.00 in/hr0.0 mm/hr 0.00 in0.0 mm
05:21 AM 57.1°F13.9°C 41.6°F5.3°C 56% 1.0 mph SSE1.6 kmh SSE 3.0 mph4.8 kmh 30.01 in1016.3 mb 0.00 in0.0 mm 0.00 in/hr0.0 mm/hr 0.00 in0.0 mm
05:33 AM 57.2°F14.0°C 41.7°F5.4°C 56% 1.0 mph S1.6 kmh S 4.0 mph6.4 kmh 30.00 in1015.9 mb 0.00 in0.0 mm 0.00 in/hr0.0 mm/hr 0.00 in0.0 mm
05:41 AM 57.3°F14.1°C 41.3°F5.2°C 55% 4.0 mph SSE6.4 kmh SSE 5.0 mph8.0 kmh 30.00 in1015.9 mb 0.00 in0.0 mm 0.00 in/hr0.0 mm/hr 0.00 in0.0 mm
05:51 AM 57.3°F14.1°C 41.3°F5.2°C 55% 3.0 mph SSE4.8 kmh SSE 7.0 mph11.3 kmh 30.00 in1015.9 mb 0.00 in0.0 mm 0.00 in/hr0.0 mm/hr 0.00 in0.0 mm
06:03 AM 57.3°F14.1°C 41.3°F5.2°C 55% 2.0 mph S3.2 kmh S 4.0 mph6.4 kmh 30.00 in1015.9 mb 0.00 in0.0 mm 0.00 in/hr0.0 mm/hr 0.00 in0.0 mm
06:11 AM 57.3°F14.1°C 41.3°F5.2°C 55% 5.0 mph SE8.0 kmh SE 7.0 mph11.3 kmh 29.99 in1015.6 mb 0.00 in0.0 mm 0.00 in/hr0.0 mm/hr 0.00 in0.0 mm
06:21 AM 57.3°F14.1°C 41.3°F5.2°C 55% 3.0 mph S4.8 kmh S 8.0 mph12.9 kmh 29.98 in1015.2 mb 0.00 in0.0 mm 0.00 in/hr0.0 mm/hr 0.00 in0.0 mm
06:33 AM 57.3°F14.1°C 41.3°F5.2°C 55% 3.0 mph SSE4.8 kmh SSE 8.0 mph12.9 kmh 29.99 in1015.6 mb 0.00 in0.0 mm 0.00 in/hr0.0 mm/hr 0.00 in0.0 mm
06:41 AM 57.3°F14.1°C 41.3°F5.2°C 55% 2.0 mph SSE3.2 kmh SSE 4.0 mph6.4 kmh 29.99 in1015.6 mb 0.00 in0.0 mm 0.00 in/hr0.0 mm/hr 0.00 in0.0 mm
06:51 AM 57.2°F14.0°C 41.2°F5.1°C 55% 3.0 mph SSE4.8 kmh SSE 5.0 mph8.0 kmh 29.99 in1015.6 mb 0.00 in0.0 mm 0.00 in/hr0.0 mm/hr 0.00 in0.0 mm
07:03 AM 57.1°F13.9°C 41.1°F5.1°C 55% 3.0 mph SSE4.8 kmh SSE 5.0 mph8.0 kmh 29.98 in1015.2 mb 0.00 in0.0 mm 0.00 in/hr0.0 mm/hr 0.00 in0.0 mm
07:33 AM 57.3°F14.1°C 41.3°F5.2°C 55% 1.0 mph SE1.6 kmh SE 6.0 mph9.7 kmh 29.97 in1014.9 mb 0.00 in0.0 mm 0.00 in/hr0.0 mm/hr 0.00 in0.0 mm
07:41 AM 57.4°F14.1°C 41.9°F5.5°C 56% Calm Calm 1.0 mph1.6 kmh 29.97 in1014.9 mb 0.00 in0.0 mm 0.00 in/hr0.0 mm/hr 0.00 in0.0 mm
07:51 AM 57.7°F14.3°C 41.7°F5.4°C 55% 2.0 mph SSE3.2 kmh SSE 5.0 mph8.0 kmh 29.97 in1014.9 mb 0.00 in0.0 mm 0.00 in/hr0.0 mm/hr 0.00 in0.0 mm
08:03 AM 57.9°F14.4°C 41.9°F5.5°C 55% 4.0 mph SSE6.4 kmh SSE 5.0 mph8.0 kmh 29.97 in1014.9 mb 0.00 in0.0 mm 0.00 in/hr0.0 mm/hr 0.00 in0.0 mm
08:11 AM 58.0°F14.4°C 41.9°F5.5°C 55% 1.0 mph S1.6 kmh S 5.0 mph8.0 kmh 29.96 in1014.6 mb 0.00 in0.0 mm 0.00 in/hr0.0 mm/hr 0.00 in0.0 mm
08:21 AM 58.4°F14.7°C 42.3°F5.7°C 55% 5.0 mph SSE8.0 kmh SSE 5.0 mph8.0 kmh 29.97 in1014.9 mb 0.00 in0.0 mm 0.00 in/hr0.0 mm/hr 0.00 in0.0 mm
08:33 AM 59.0°F15.0°C 42.4°F5.8°C 54% 3.0 mph S4.8 kmh S 7.0 mph11.3 kmh 29.97 in1014.9 mb 0.00 in0.0 mm 0.00 in/hr0.0 mm/hr 0.00 in0.0 mm
08:41 AM 59.2°F15.1°C 42.6°F5.9°C 54% 2.0 mph S3.2 kmh S 4.0 mph6.4 kmh 29.97 in1014.9 mb 0.00 in0.0 mm 0.00 in/hr0.0 mm/hr 0.00 in0.0 mm
08:51 AM 59.9°F15.5°C 42.7°F5.9°C 53% 2.0 mph S3.2 kmh S 5.0 mph8.0 kmh 29.96 in1014.6 mb 0.00 in0.0 mm 0.00 in/hr0.0 mm/hr 0.00 in0.0 mm
09:03 AM 60.4°F15.8°C 43.2°F6.2°C 53% 2.0 mph S3.2 kmh S 5.0 mph8.0 kmh 29.96 in1014.6 mb 0.00 in0.0 mm 0.00 in/hr0.0 mm/hr 0.00 in0.0 mm
09:11 AM 61.0°F16.1°C 43.3°F6.3°C 52% Calm Calm 5.0 mph8.0 kmh 29.97 in1014.9 mb 0.00 in0.0 mm 0.00 in/hr0.0 mm/hr 0.00 in0.0 mm
09:21 AM 61.2°F16.2°C 44.4°F6.9°C 54% 1.0 mph SSE1.6 kmh SSE 2.0 mph3.2 kmh 29.96 in1014.6 mb 0.00 in0.0 mm 0.00 in/hr0.0 mm/hr 0.00 in0.0 mm
09:33 AM 60.2°F15.7°C 44.5°F6.9°C 56% 3.0 mph ENE4.8 kmh ENE 5.0 mph8.0 kmh 29.96 in1014.6 mb 0.00 in0.0 mm 0.00 in/hr0.0 mm/hr 0.00 in0.0 mm
09:41 AM 60.0°F15.6°C 44.3°F6.8°C 56% 2.0 mph NE3.2 kmh NE 5.0 mph8.0 kmh 29.95 in1014.2 mb 0.00 in0.0 mm 0.00 in/hr0.0 mm/hr 0.00 in0.0 mm
09:51 AM 60.4°F15.8°C 46.9°F8.3°C 61% 2.0 mph ESE3.2 kmh ESE 6.0 mph9.7 kmh 29.95 in1014.2 mb 0.00 in0.0 mm 0.00 in/hr0.0 mm/hr 0.00 in0.0 mm
10:03 AM 61.6°F16.4°C 49.7°F9.8°C 65% 3.0 mph S4.8 kmh S 7.0 mph11.3 kmh 29.96 in1014.6 mb 0.00 in0.0 mm 0.00 in/hr0.0 mm/hr 0.00 in0.0 mm
10:11 AM 61.7°F16.5°C 49.8°F9.9°C 65% 2.0 mph SSW3.2 kmh SSW 7.0 mph11.3 kmh 29.96 in1014.6 mb 0.00 in0.0 mm 0.00 in/hr0.0 mm/hr 0.00 in0.0 mm
10:21 AM 62.1°F16.7°C 50.2°F10.1°C 65% Calm Calm -- 29.96 in1014.6 mb 0.00 in0.0 mm 0.00 in/hr0.0 mm/hr 0.00 in0.0 mm
10:33 AM 63.1°F17.3°C 45.7°F7.6°C 53% Calm Calm 2.0 mph3.2 kmh 29.96 in1014.6 mb 0.00 in0.0 mm 0.00 in/hr0.0 mm/hr 0.00 in0.0 mm
10:41 AM 63.9°F17.7°C 44.9°F7.2°C 50% Calm Calm -- 29.96 in1014.6 mb 0.00 in0.0 mm 0.00 in/hr0.0 mm/hr 0.00 in0.0 mm
10:51 AM 65.1°F18.4°C 53.1°F11.7°C 65% 1.0 mph SW1.6 kmh SW 2.0 mph3.2 kmh 29.96 in1014.6 mb 0.00 in0.0 mm 0.00 in/hr0.0 mm/hr 0.00 in0.0 mm
11:03 AM 65.4°F18.6°C 52.1°F11.2°C 62% 4.0 mph E6.4 kmh E 5.0 mph8.0 kmh 29.95 in1014.2 mb 0.00 in0.0 mm 0.00 in/hr0.0 mm/hr 0.00 in0.0 mm
11:11 AM 65.8°F18.8°C 52.0°F11.1°C 61% Calm Calm 5.0 mph8.0 kmh 29.94 in1013.9 mb 0.00 in0.0 mm 0.00 in/hr0.0 mm/hr 0.00 in0.0 mm
11:21 AM 66.7°F19.3°C 49.6°F9.8°C 54% 1.0 mph SSE1.6 kmh SSE 3.0 mph4.8 kmh 29.95 in1014.2 mb 0.00 in0.0 mm 0.00 in/hr0.0 mm/hr 0.00 in0.0 mm
11:33 AM 66.6°F19.2°C 49.5°F9.7°C 54% 2.0 mph SSE3.2 kmh SSE 3.0 mph4.8 kmh 29.95 in1014.2 mb 0.00 in0.0 mm 0.00 in/hr0.0 mm/hr 0.00 in0.0 mm
11:41 AM 67.0°F19.4°C 49.3°F9.6°C 53% 1.0 mph SSE1.6 kmh SSE 4.0 mph6.4 kmh 29.95 in1014.2 mb 0.00 in0.0 mm 0.00 in/hr0.0 mm/hr 0.00 in0.0 mm
11:51 AM 68.1°F20.1°C 47.7°F8.7°C 48% 1.0 mph SE1.6 kmh SE 6.0 mph9.7 kmh 29.93 in1013.5 mb 0.00 in0.0 mm 0.00 in/hr0.0 mm/hr 0.00 in0.0 mm
12:03 PM 68.0°F20.0°C 48.2°F9.0°C 49% 3.0 mph N4.8 kmh N 5.0 mph8.0 kmh 29.93 in1013.5 mb 0.00 in0.0 mm 0.00 in/hr0.0 mm/hr 0.00 in0.0 mm
12:11 PM 68.2°F20.1°C 49.9°F9.9°C 52% 6.0 mph NW9.7 kmh NW 9.0 mph14.5 kmh 29.93 in1013.5 mb 0.00 in0.0 mm 0.00 in/hr0.0 mm/hr 0.00 in0.0 mm
12:21 PM 67.5°F19.7°C 49.3°F9.6°C 52% 5.0 mph NW8.0 kmh NW 9.0 mph14.5 kmh 29.92 in1013.2 mb 0.00 in0.0 mm 0.00 in/hr0.0 mm/hr 0.00 in0.0 mm
12:33 PM 67.9°F19.9°C 49.1°F9.5°C 51% 4.0 mph NW6.4 kmh NW 10.0 mph16.1 kmh 29.92 in1013.2 mb 0.00 in0.0 mm 0.00 in/hr0.0 mm/hr 0.00 in0.0 mm
12:41 PM 68.8°F20.4°C 49.4°F9.7°C 50% 1.0 mph N1.6 kmh N 6.0 mph9.7 kmh 29.91 in1012.9 mb 0.00 in0.0 mm 0.00 in/hr0.0 mm/hr 0.00 in0.0 mm
12:51 PM 68.4°F20.2°C 49.1°F9.5°C 50% 5.0 mph NW8.0 kmh NW 10.0 mph16.1 kmh 29.91 in1012.9 mb 0.00 in0.0 mm 0.00 in/hr0.0 mm/hr 0.00 in0.0 mm
01:03 PM 68.4°F20.2°C 49.1°F9.5°C 50% 6.0 mph NW9.7 kmh NW 9.0 mph14.5 kmh 29.90 in1012.5 mb 0.00 in0.0 mm 0.00 in/hr0.0 mm/hr 0.00 in0.0 mm
01:11 PM 69.0°F20.6°C 48.5°F9.2°C 48% 3.0 mph NNE4.8 kmh NNE 9.0 mph14.5 kmh 29.91 in1012.9 mb 0.00 in0.0 mm 0.00 in/hr0.0 mm/hr 0.00 in0.0 mm
01:21 PM 69.1°F20.6°C 49.2°F9.6°C 49% 3.0 mph N4.8 kmh N 10.0 mph16.1 kmh 29.89 in1012.2 mb 0.00 in0.0 mm 0.00 in/hr0.0 mm/hr 0.00 in0.0 mm
01:33 PM 68.3°F20.2°C 50.5°F10.3°C 53% 7.0 mph NNE11.3 kmh NNE 13.0 mph20.9 kmh 29.90 in1012.5 mb 0.00 in0.0 mm 0.00 in/hr0.0 mm/hr 0.00 in0.0 mm
01:41 PM 68.3°F20.2°C 50.5°F10.3°C 53% 4.0 mph NE6.4 kmh NE 9.0 mph14.5 kmh 29.89 in1012.2 mb 0.00 in0.0 mm 0.00 in/hr0.0 mm/hr 0.00 in0.0 mm
01:51 PM 68.0°F20.0°C 50.8°F10.4°C 54% 4.0 mph 6.4 kmh 12.0 mph19.3 kmh 29.89 in1012.2 mb 0.00 in0.0 mm 0.00 in/hr0.0 mm/hr 0.00 in0.0 mm
02:03 PM 67.7°F19.8°C 50.5°F10.3°C 54% 4.0 mph NNW6.4 kmh NNW 9.0 mph14.5 kmh 29.88 in1011.9 mb 0.00 in0.0 mm 0.00 in/hr0.0 mm/hr 0.00 in0.0 mm
02:11 PM 67.8°F19.9°C 50.6°F10.3°C 54% 7.0 mph NNE11.3 kmh NNE 10.0 mph16.1 kmh 29.88 in1011.9 mb 0.00 in0.0 mm 0.00 in/hr0.0 mm/hr 0.00 in0.0 mm
02:21 PM 67.0°F19.4°C 49.8°F9.9°C 54% 4.0 mph N6.4 kmh N 9.0 mph14.5 kmh 29.88 in1011.9 mb 0.00 in0.0 mm 0.00 in/hr0.0 mm/hr 0.00 in0.0 mm
02:33 PM 67.3°F19.6°C 50.1°F10.1°C 54% 6.0 mph N9.7 kmh N 9.0 mph14.5 kmh 29.87 in1011.5 mb 0.00 in0.0 mm 0.00 in/hr0.0 mm/hr 0.00 in0.0 mm
02:41 PM 67.4°F19.7°C 50.2°F10.1°C 54% 2.0 mph NNE3.2 kmh NNE 8.0 mph12.9 kmh 29.87 in1011.5 mb 0.00 in0.0 mm 0.00 in/hr0.0 mm/hr 0.00 in0.0 mm
02:51 PM 67.3°F19.6°C 50.1°F10.1°C 54% 4.0 mph NNW6.4 kmh NNW 8.0 mph12.9 kmh 29.87 in1011.5 mb 0.00 in0.0 mm 0.00 in/hr0.0 mm/hr 0.00 in0.0 mm
03:03 PM 67.8°F19.9°C 50.6°F10.3°C 54% Calm Calm 4.0 mph6.4 kmh 29.87 in1011.5 mb 0.00 in0.0 mm 0.00 in/hr0.0 mm/hr 0.00 in0.0 mm
03:11 PM 68.2°F20.1°C 50.4°F10.2°C 53% 3.0 mph E4.8 kmh E 8.0 mph12.9 kmh 29.87 in1011.5 mb 0.00 in0.0 mm 0.00 in/hr0.0 mm/hr 0.00 in0.0 mm
03:21 PM 68.0°F20.0°C 50.3°F10.2°C 53% 4.0 mph NNE6.4 kmh NNE 7.0 mph11.3 kmh 29.86 in1011.2 mb 0.00 in0.0 mm 0.00 in/hr0.0 mm/hr 0.00 in0.0 mm
03:33 PM 68.3°F20.2°C 50.5°F10.3°C 53% 4.0 mph WNW6.4 kmh WNW 9.0 mph14.5 kmh 29.85 in1010.8 mb 0.00 in0.0 mm 0.00 in/hr0.0 mm/hr 0.00 in0.0 mm
03:41 PM 68.9°F20.5°C 51.6°F10.9°C 54% 5.0 mph W8.0 kmh W 6.0 mph9.7 kmh 29.85 in1010.8 mb 0.00 in0.0 mm 0.00 in/hr0.0 mm/hr 0.00 in0.0 mm
03:51 PM 69.2°F20.7°C 50.9°F10.5°C 52% 7.0 mph NW11.3 kmh NW 8.0 mph12.9 kmh 29.84 in1010.5 mb 0.00 in0.0 mm 0.00 in/hr0.0 mm/hr 0.00 in0.0 mm
04:03 PM 68.4°F20.2°C 50.6°F10.3°C 53% 3.0 mph WNW4.8 kmh WNW 8.0 mph12.9 kmh 29.84 in1010.5 mb 0.00 in0.0 mm 0.00 in/hr0.0 mm/hr 0.00 in0.0 mm
04:11 PM 68.5°F20.3°C 50.7°F10.4°C 53% 5.0 mph W8.0 kmh W 8.0 mph12.9 kmh 29.84 in1010.5 mb 0.00 in0.0 mm 0.00 in/hr0.0 mm/hr 0.00 in0.0 mm
04:21 PM 67.6°F19.8°C 49.9°F9.9°C 53% 5.0 mph WNW8.0 kmh WNW 8.0 mph12.9 kmh 29.83 in1010.2 mb 0.00 in0.0 mm 0.00 in/hr0.0 mm/hr 0.00 in0.0 mm
04:33 PM 67.9°F19.9°C 49.7°F9.8°C 52% 7.0 mph NW11.3 kmh NW 12.0 mph19.3 kmh 29.83 in1010.2 mb 0.00 in0.0 mm 0.00 in/hr0.0 mm/hr 0.00 in0.0 mm
04:41 PM 67.6°F19.8°C 49.4°F9.7°C 52% 1.0 mph NW1.6 kmh NW 6.0 mph9.7 kmh 29.84 in1010.5 mb 0.00 in0.0 mm 0.00 in/hr0.0 mm/hr 0.00 in0.0 mm
04:51 PM 67.6°F19.8°C 49.4°F9.7°C 52% 10.0 mph WSW16.1 kmh WSW 11.0 mph17.7 kmh 29.84 in1010.5 mb 0.00 in0.0 mm 0.00 in/hr0.0 mm/hr 0.00 in0.0 mm
05:04 PM 67.5°F19.7°C 49.3°F9.6°C 52% 4.0 mph W6.4 kmh W 10.0 mph16.1 kmh 29.83 in1010.2 mb 0.00 in0.0 mm 0.00 in/hr0.0 mm/hr 0.00 in0.0 mm
05:11 PM 67.3°F19.6°C 49.1°F9.5°C 52% 4.0 mph W6.4 kmh W 10.0 mph16.1 kmh 29.84 in1010.5 mb 0.00 in0.0 mm 0.00 in/hr0.0 mm/hr 0.00 in0.0 mm
05:21 PM 66.9°F19.4°C 48.7°F9.3°C 52% 11.0 mph WSW17.7 kmh WSW 13.0 mph20.9 kmh 29.84 in1010.5 mb 0.00 in0.0 mm 0.00 in/hr0.0 mm/hr 0.00 in0.0 mm
05:34 PM 66.4°F19.1°C 48.3°F9.1°C 52% 7.0 mph SW11.3 kmh SW 15.0 mph24.1 kmh 29.84 in1010.5 mb 0.00 in0.0 mm 0.00 in/hr0.0 mm/hr 0.00 in0.0 mm
05:41 PM 65.9°F18.8°C 48.3°F9.1°C 53% 11.0 mph SW17.7 kmh SW 18.0 mph29.0 kmh 29.84 in1010.5 mb 0.00 in0.0 mm 0.00 in/hr0.0 mm/hr 0.00 in0.0 mm
05:51 PM 65.1°F18.4°C 48.1°F8.9°C 54% 8.0 mph WSW12.9 kmh WSW 18.0 mph29.0 kmh 29.84 in1010.5 mb 0.00 in0.0 mm 0.00 in/hr0.0 mm/hr 0.00 in0.0 mm
06:04 PM 64.3°F17.9°C 45.8°F7.7°C 51% 7.0 mph WNW11.3 kmh WNW 12.0 mph19.3 kmh 29.84 in1010.5 mb 0.00 in0.0 mm 0.00 in/hr0.0 mm/hr 0.00 in0.0 mm
06:11 PM 63.9°F17.7°C 46.5°F8.1°C 53% 6.0 mph WNW9.7 kmh WNW 14.0 mph22.5 kmh 29.84 in1010.5 mb 0.00 in0.0 mm 0.00 in/hr0.0 mm/hr 0.00 in0.0 mm
06:21 PM 63.4°F17.4°C 46.0°F7.8°C 53% 6.0 mph W9.7 kmh W 18.0 mph29.0 kmh 29.84 in1010.5 mb 0.00 in0.0 mm 0.00 in/hr0.0 mm/hr 0.00 in0.0 mm
06:33 PM 62.5°F16.9°C 47.5°F8.6°C 58% 1.0 mph SW1.6 kmh SW 18.0 mph29.0 kmh 29.85 in1010.8 mb 0.00 in0.0 mm 0.00 in/hr0.0 mm/hr 0.00 in0.0 mm
06:41 PM 62.0°F16.7°C 49.7°F9.8°C 64% 12.0 mph WSW19.3 kmh WSW 12.0 mph19.3 kmh 29.86 in1011.2 mb 0.00 in0.0 mm 0.00 in/hr0.0 mm/hr 0.00 in0.0 mm
06:51 PM 61.1°F16.2°C 46.7°F8.2°C 59% 2.0 mph WSW3.2 kmh WSW 16.0 mph25.7 kmh 29.86 in1011.2 mb 0.00 in0.0 mm 0.00 in/hr0.0 mm/hr 0.00 in0.0 mm
07:03 PM 60.9°F16.1°C 45.6°F7.6°C 57% 4.0 mph SSW6.4 kmh SSW 8.0 mph12.9 kmh 29.87 in1011.5 mb 0.00 in0.0 mm 0.00 in/hr0.0 mm/hr 0.00 in0.0 mm
07:11 PM 60.8°F16.0°C 46.4°F8.0°C 59% 7.0 mph WSW11.3 kmh WSW 10.0 mph16.1 kmh 29.87 in1011.5 mb 0.00 in0.0 mm 0.00 in/hr0.0 mm/hr 0.00 in0.0 mm
07:21 PM 60.8°F16.0°C 47.7°F8.7°C 62% Calm Calm 2.0 mph3.2 kmh 29.87 in1011.5 mb 0.00 in0.0 mm 0.00 in/hr0.0 mm/hr 0.00 in0.0 mm
07:34 PM 60.7°F15.9°C 50.5°F10.3°C 69% Calm Calm 4.0 mph6.4 kmh 29.87 in1011.5 mb 0.00 in0.0 mm 0.00 in/hr0.0 mm/hr 0.00 in0.0 mm
07:41 PM 60.4°F15.8°C 47.8°F8.8°C 63% 2.0 mph NW3.2 kmh NW 2.0 mph3.2 kmh 29.87 in1011.5 mb 0.00 in0.0 mm 0.00 in/hr0.0 mm/hr 0.00 in0.0 mm
07:51 PM 60.2°F15.7°C 49.2°F9.6°C 67% 1.0 mph NW1.6 kmh NW 4.0 mph6.4 kmh 29.87 in1011.5 mb 0.00 in0.0 mm 0.00 in/hr0.0 mm/hr 0.00 in0.0 mm
08:03 PM 59.7°F15.4°C 45.4°F7.4°C 59% 3.0 mph NW4.8 kmh NW 6.0 mph9.7 kmh 29.86 in1011.2 mb 0.01 in0.3 mm 0.01 in/hr0.3 mm/hr 0.01 in0.3 mm
08:11 PM 59.8°F15.4°C 52.6°F11.4°C 77% 2.0 mph NW3.2 kmh NW 6.0 mph9.7 kmh 29.86 in1011.2 mb 0.01 in0.3 mm 0.00 in/hr0.0 mm/hr 0.01 in0.3 mm
08:21 PM 59.5°F15.3°C 48.2°F9.0°C 66% 2.0 mph WNW3.2 kmh WNW 3.0 mph4.8 kmh 29.86 in1011.2 mb 0.02 in0.5 mm 0.06 in/hr1.5 mm/hr 0.02 in0.5 mm
08:34 PM 59.4°F15.2°C 50.8°F10.4°C 73% 3.0 mph W4.8 kmh W 3.0 mph4.8 kmh 29.86 in1011.2 mb 0.02 in0.5 mm 0.00 in/hr0.0 mm/hr 0.02 in0.5 mm
08:41 PM 59.2°F15.1°C 52.4°F11.3°C 78% 2.0 mph W3.2 kmh W 3.0 mph4.8 kmh 29.86 in1011.2 mb 0.02 in0.5 mm 0.00 in/hr0.0 mm/hr 0.02 in0.5 mm
08:51 PM 58.8°F14.9°C 47.1°F8.4°C 65% Calm Calm 3.0 mph4.8 kmh 29.86 in1011.2 mb 0.03 in0.8 mm 0.06 in/hr1.5 mm/hr 0.03 in0.8 mm
09:04 PM 58.9°F14.9°C 51.7°F10.9°C 77% 2.0 mph W3.2 kmh W 2.0 mph3.2 kmh 29.86 in1011.2 mb 0.02 in0.5 mm 0.00 in/hr0.0 mm/hr 0.03 in0.8 mm
09:11 PM 58.9°F14.9°C 51.4°F10.8°C 76% 2.0 mph W3.2 kmh W 4.0 mph6.4 kmh 29.86 in1011.2 mb 0.02 in0.5 mm 0.00 in/hr0.0 mm/hr 0.03 in0.8 mm
09:21 PM 58.9°F14.9°C 51.4°F10.8°C 76% 1.0 mph W1.6 kmh W 3.0 mph4.8 kmh 29.85 in1010.8 mb 0.01 in0.3 mm 0.00 in/hr0.0 mm/hr 0.03 in0.8 mm
09:34 PM 58.7°F14.8°C 51.5°F10.8°C 77% Calm Calm 4.0 mph6.4 kmh 29.85 in1010.8 mb 0.02 in0.5 mm 0.05 in/hr1.3 mm/hr 0.04 in1.0 mm
09:41 PM 58.6°F14.8°C 51.8°F11.0°C 78% 2.0 mph W3.2 kmh W 2.0 mph3.2 kmh 29.85 in1010.8 mb 0.02 in0.5 mm 0.00 in/hr0.0 mm/hr 0.04 in1.0 mm
09:51 PM 58.6°F14.8°C 51.1°F10.6°C 76% Calm Calm 3.0 mph4.8 kmh 29.84 in1010.5 mb 0.01 in0.3 mm 0.00 in/hr0.0 mm/hr 0.04 in1.0 mm
10:04 PM 58.3°F14.6°C 53.2°F11.8°C 83% Calm Calm 2.0 mph3.2 kmh 29.84 in1010.5 mb 0.01 in0.3 mm 0.00 in/hr0.0 mm/hr 0.04 in1.0 mm
10:11 PM 58.2°F14.6°C 53.4°F11.9°C 84% Calm Calm 2.0 mph3.2 kmh 29.85 in1010.8 mb 0.01 in0.3 mm 0.00 in/hr0.0 mm/hr 0.04 in1.0 mm
10:33 PM 58.0°F14.4°C 53.5°F11.9°C 85% 1.0 mph W1.6 kmh W 3.0 mph4.8 kmh 29.85 in1010.8 mb 0.00 in0.0 mm 0.00 in/hr0.0 mm/hr 0.04 in1.0 mm
10:41 PM 57.9°F14.4°C 53.4°F11.9°C 85% 4.0 mph SE6.4 kmh SE 5.0 mph8.0 kmh 29.85 in1010.8 mb 0.00 in0.0 mm 0.00 in/hr0.0 mm/hr 0.04 in1.0 mm
10:51 PM 57.8°F14.3°C 53.0°F11.7°C 84% Calm Calm 6.0 mph9.7 kmh 29.84 in1010.5 mb 0.00 in0.0 mm 0.00 in/hr0.0 mm/hr 0.04 in1.0 mm
11:03 PM 57.4°F14.1°C 52.6°F11.4°C 84% 1.0 mph SSE1.6 kmh SSE 1.0 mph1.6 kmh 29.83 in1010.2 mb 0.00 in0.0 mm 0.00 in/hr0.0 mm/hr 0.04 in1.0 mm
11:11 PM 57.4°F14.1°C 47.3°F8.5°C 69% 1.0 mph SSE1.6 kmh SSE 3.0 mph4.8 kmh 29.83 in1010.2 mb 0.00 in0.0 mm 0.00 in/hr0.0 mm/hr 0.04 in1.0 mm
11:21 PM 57.9°F14.4°C 52.1°F11.2°C 81% 1.0 mph SSE1.6 kmh SSE 3.0 mph4.8 kmh 29.84 in1010.5 mb 0.00 in0.0 mm 0.00 in/hr0.0 mm/hr 0.04 in1.0 mm
11:33 PM 59.8°F15.4°C 54.3°F12.4°C 82% 1.0 mph E1.6 kmh E 4.0 mph6.4 kmh 29.84 in1010.5 mb 0.00 in0.0 mm 0.00 in/hr0.0 mm/hr 0.04 in1.0 mm
11:41 PM 59.8°F15.4°C 54.3°F12.4°C 82% 1.0 mph E1.6 kmh E 2.0 mph3.2 kmh 29.84 in1010.5 mb 0.00 in0.0 mm 0.00 in/hr0.0 mm/hr 0.04 in1.0 mm
11:51 PM 59.6°F15.3°C 54.1°F12.3°C 82% 4.0 mph SE6.4 kmh SE 6.0 mph9.7 kmh 29.84 in1010.5 mb 0.00 in0.0 mm 0.00 in/hr0.0 mm/hr 0.04 in1.0 mm